Time;durP1;ratioP1;P1;durP2;ratioP2;P2;SDS_P1;SDS_P2;PMS_P1;PMS_P2;Temp;Humidity;BMP_temperature;BMP_pressure;BME280_temperature;BME280_humidity;BME280_pressure;Samples;Min_cycle;Max_cycle;Signal;HPM_P1;HPM_P2
2022/02/12 00:00:37;;;;;;;1.07;1.07;;;1.40;99.90;;;;;;4995177;28;20216;-86
2022/02/12 00:03:03;;;;;;;0.80;0.80;;;1.50;99.90;;;;;;4995935;28;20203;-86
2022/02/12 00:05:29;;;;;;;0.40;0.40;;;1.50;99.90;;;;;;4976117;28;20234;-87
2022/02/12 00:07:56;;;;;;;1.30;1.30;;;1.50;99.90;;;;;;4974761;28;20374;-87
2022/02/12 00:10:23;;;;;;;1.10;0.70;;;1.50;99.90;;;;;;4995277;28;20325;-87
2022/02/12 00:12:49;;;;;;;0.50;0.50;;;1.40;99.90;;;;;;4996366;28;20473;-87
2022/02/12 00:15:16;;;;;;;0.57;0.57;;;1.50;99.90;;;;;;4988106;28;20678;-87
2022/02/12 00:17:45;;;;;;;0.80;0.80;;;1.50;99.90;;;;;;4980990;28;20894;-86
2022/02/12 00:20:13;;;;;;;1.60;1.60;;;1.60;99.90;;;;;;4999322;28;20792;-85
2022/02/12 00:22:39;;;;;;;0.40;0.40;;;1.60;99.90;;;;;;4997598;28;20226;-85
2022/02/12 00:25:06;;;;;;;1.23;1.00;;;1.60;99.90;;;;;;4979718;28;20231;-85
2022/02/12 00:27:31;;;;;;;1.00;1.00;;;1.60;99.90;;;;;;4994409;28;20196;-85
2022/02/12 00:29:57;;;;;;;0.60;0.60;;;1.60;99.90;;;;;;4971464;28;20253;-86
2022/02/12 00:32:24;;;;;;;1.37;1.27;;;1.70;99.90;;;;;;4997711;28;20230;-86
2022/02/12 00:34:50;;;;;;;0.50;0.50;;;1.70;99.90;;;;;;4994639;28;20223;-87
2022/02/12 00:37:16;;;;;;;2.60;1.23;;;1.60;99.90;;;;;;4994663;28;20231;-86
2022/02/12 00:39:41;;;;;;;5.70;1.50;;;1.60;99.90;;;;;;4994574;28;20355;-88
2022/02/12 00:42:08;;;;;;;0.67;0.67;;;1.60;99.90;;;;;;4994907;28;20200;-85
2022/02/12 00:44:34;;;;;;;0.80;0.80;;;1.50;99.90;;;;;;4996374;28;20239;-88
2022/02/12 00:47:00;;;;;;;9.50;1.10;;;1.40;99.90;;;;;;4994366;28;20648;-88
2022/02/12 00:49:26;;;;;;;0.70;0.70;;;1.40;99.90;;;;;;4978791;28;20231;-86
2022/02/12 00:51:52;;;;;;;2.63;1.00;;;1.40;99.90;;;;;;4993721;28;20223;-84
2022/02/12 00:54:18;;;;;;;2.53;1.30;;;1.40;99.90;;;;;;4997227;28;20196;-86
2022/02/12 00:56:44;;;;;;;1.67;1.67;;;1.30;99.90;;;;;;4993917;28;20223;-87
2022/02/12 00:59:10;;;;;;;0.90;0.90;;;1.30;99.90;;;;;;4978136;28;20269;-86
2022/02/12 01:01:36;;;;;;;2.27;2.07;;;1.30;99.90;;;;;;4995888;28;20659;-88
2022/02/12 01:04:03;;;;;;;0.50;0.50;;;1.30;99.90;;;;;;4997164;28;20230;-86
2022/02/12 01:06:30;;;;;;;1.50;1.50;;;1.30;99.90;;;;;;4979512;28;20218;-86
2022/02/12 01:08:56;;;;;;;1.17;1.07;;;1.30;99.90;;;;;;4994889;28;20274;-86
2022/02/12 01:11:21;;;;;;;0.33;0.33;;;1.30;99.90;;;;;;4986995;28;20754;-87
2022/02/12 01:13:47;;;;;;;0.77;0.77;;;1.40;99.90;;;;;;4995094;28;20228;-86
2022/02/12 01:16:13;;;;;;;6.70;0.80;;;1.40;99.90;;;;;;4964419;28;20682;-86
2022/02/12 01:18:39;;;;;;;2.00;1.07;;;1.30;99.90;;;;;;4996170;28;21018;-84
2022/02/12 01:21:05;;;;;;;1.90;1.50;;;1.30;99.90;;;;;;4987021;28;20219;-86
2022/02/12 01:23:30;;;;;;;1.03;1.03;;;1.30;99.90;;;;;;4994708;28;20219;-86
2022/02/12 01:25:56;;;;;;;1.80;1.70;;;1.40;99.90;;;;;;4995394;28;20227;-86
2022/02/12 01:28:22;;;;;;;1.00;1.00;;;1.40;99.90;;;;;;4980049;28;20219;-86
2022/02/12 01:30:48;;;;;;;0.63;0.63;;;1.30;99.90;;;;;;4994367;28;20216;-86
2022/02/12 01:33:14;;;;;;;0.60;0.60;;;1.40;99.90;;;;;;4971514;28;20291;-86
2022/02/12 01:35:41;;;;;;;0.50;0.50;;;1.40;99.90;;;;;;4996875;28;20224;-86
2022/02/12 01:38:06;;;;;;;2.83;0.77;;;1.50;99.90;;;;;;4995617;28;20219;-87
2022/02/12 01:40:32;;;;;;;0.90;0.63;;;1.50;99.90;;;;;;4994019;28;20224;-86
2022/02/12 01:43:02;;;;;;;6.17;1.50;;;1.50;99.90;;;;;;4990407;28;20691;-86
2022/02/12 01:45:29;;;;;;;0.50;0.50;;;1.60;99.90;;;;;;4992891;28;20253;-85
2022/02/12 01:47:55;;;;;;;0.63;0.63;;;1.60;99.90;;;;;;4995928;28;20275;-85
2022/02/12 01:50:21;;;;;;;0.43;0.43;;;1.70;99.90;;;;;;4992166;28;21119;-86
2022/02/12 01:52:48;;;;;;;0.70;0.70;;;1.70;99.90;;;;;;4993252;28;20246;-85
2022/02/12 01:55:14;;;;;;;1.03;1.03;;;1.70;99.90;;;;;;4996741;28;21320;-86
2022/02/12 01:57:40;;;;;;;4.10;1.00;;;1.60;99.90;;;;;;4996058;28;20316;-86
2022/02/12 02:00:08;;;;;;;0.80;0.80;;;1.40;99.90;;;;;;4998271;28;21034;-85
2022/02/12 02:02:37;;;;;;;0.60;0.60;;;1.30;99.90;;;;;;4998243;28;20344;-86
2022/02/12 02:05:04;;;;;;;1.07;1.07;;;1.20;99.90;;;;;;4996961;28;20244;-86
2022/02/12 02:07:30;;;;;;;0.43;0.43;;;1.30;99.90;;;;;;4997029;28;20247;-86
2022/02/12 02:09:56;;;;;;;1.00;1.00;;;1.30;99.90;;;;;;4979986;28;20605;-86
2022/02/12 02:12:22;;;;;;;0.40;0.40;;;1.20;99.90;;;;;;4990337;28;20188;-85
2022/02/12 02:14:48;;;;;;;0.77;0.77;;;1.30;99.90;;;;;;5005641;28;20298;-86
2022/02/12 02:17:13;;;;;;;0.40;0.40;;;1.30;99.90;;;;;;4999419;28;20617;-86
2022/02/12 02:19:39;;;;;;;0.97;0.97;;;1.40;99.90;;;;;;4999251;28;20714;-87
2022/02/12 02:22:05;;;;;;;0.57;0.57;;;1.40;99.90;;;;;;4981718;28;20222;-86
2022/02/12 02:24:31;;;;;;;1.47;1.37;;;1.50;99.90;;;;;;4998388;28;20719;-87
2022/02/12 02:27:08;;;;;;;0.40;0.40;;;1.60;99.90;;;;;;4997224;28;20223;-87
2022/02/12 02:29:37;;;;;;;0.53;0.47;;;1.70;99.90;;;;;;5016059;28;20230;-87
2022/02/12 02:32:03;;;;;;;0.60;0.60;;;1.80;99.90;;;;;;4996110;28;20270;-86
2022/02/12 02:34:29;;;;;;;1.30;1.30;;;1.80;99.90;;;;;;4997008;28;20306;-87
2022/02/12 02:36:54;;;;;;;4.43;0.83;;;1.80;99.90;;;;;;4999678;28;20344;-86
2022/02/12 02:39:20;;;;;;;0.93;0.93;;;1.90;99.90;;;;;;4981149;28;20195;-86
2022/02/12 02:41:46;;;;;;;4.10;0.70;;;1.90;99.90;;;;;;4988505;28;20686;-87
2022/02/12 02:44:12;;;;;;;0.83;0.83;;;1.90;99.90;;;;;;4996212;28;21053;-87
2022/02/12 02:46:38;;;;;;;0.87;0.87;;;1.90;99.90;;;;;;4982249;28;20282;-87
2022/02/12 02:49:04;;;;;;;0.47;0.47;;;1.90;99.90;;;;;;4963096;28;20918;-87
2022/02/12 02:56:58;;;;;;;0.90;0.87;;;1.90;99.90;;;;;;4998452;28;20295;-86
2022/02/12 02:59:24;;;;;;;0.40;0.40;;;2.00;99.90;;;;;;4997431;28;20314;-86
2022/02/12 03:01:52;;;;;;;2.47;2.33;;;2.00;99.90;;;;;;4973730;28;21066;-87
2022/02/12 03:04:20;;;;;;;1.37;0.97;;;2.00;99.90;;;;;;4982693;28;20219;-86
2022/02/12 03:06:47;;;;;;;0.30;0.30;;;2.00;99.90;;;;;;4996459;28;20278;-85
2022/02/12 03:09:12;;;;;;;2.07;1.40;;;2.00;99.90;;;;;;4997576;28;20725;-85
2022/02/12 03:11:38;;;;;;;1.83;1.73;;;2.00;99.90;;;;;;4981139;28;20224;-86
2022/02/12 03:14:04;;;;;;;0.70;0.70;;;2.00;99.90;;;;;;4981083;28;20220;-85
2022/02/12 03:16:31;;;;;;;0.43;0.43;;;2.00;99.90;;;;;;4996379;28;20665;-85
2022/02/12 03:18:56;;;;;;;1.10;0.97;;;1.90;99.90;;;;;;4979037;28;20227;-86
2022/02/12 03:21:22;;;;;;;1.50;1.40;;;1.90;99.90;;;;;;4981260;28;20554;-85
2022/02/12 03:23:48;;;;;;;0.40;0.40;;;1.90;99.90;;;;;;4982203;28;20198;-85
2022/02/12 03:26:14;;;;;;;1.63;1.63;;;2.00;99.90;;;;;;4972371;28;20255;-86
2022/02/12 03:28:41;;;;;;;1.10;1.07;;;1.90;99.90;;;;;;4999460;28;20223;-86
2022/02/12 03:31:07;;;;;;;0.40;0.40;;;1.90;99.90;;;;;;4988487;28;20286;-86
2022/02/12 03:33:33;;;;;;;0.43;0.43;;;1.90;99.90;;;;;;4995153;28;20199;-85
2022/02/12 03:35:59;;;;;;;1.03;0.90;;;1.90;99.90;;;;;;4997628;28;20192;-86
2022/02/12 03:38:27;;;;;;;1.30;1.20;;;1.90;99.90;;;;;;4995908;28;20227;-86
2022/02/12 03:41:00;;;;;;;0.40;0.40;;;1.90;99.90;;;;;;4997857;28;20220;-86
2022/02/12 03:43:28;;;;;;;0.70;0.70;;;1.90;99.90;;;;;;4996188;28;20224;-85
2022/02/12 03:45:54;;;;;;;1.00;1.00;;;1.90;99.90;;;;;;4996562;28;20231;-86
2022/02/12 03:48:22;;;;;;;1.23;0.93;;;1.90;99.90;;;;;;4981389;28;20203;-85
2022/02/12 03:50:47;;;;;;;5.37;0.63;;;1.90;99.90;;;;;;4996005;28;20215;-86
2022/02/12 03:53:13;;;;;;;0.50;0.50;;;1.90;99.90;;;;;;4987917;28;20698;-86
2022/02/12 03:55:40;;;;;;;0.57;0.57;;;2.00;99.90;;;;;;4979471;28;20289;-86
2022/02/12 03:58:10;;;;;;;0.57;0.57;;;2.00;99.90;;;;;;4996949;28;20298;-86
2022/02/12 04:00:38;;;;;;;0.53;0.53;;;2.00;99.90;;;;;;4997266;28;20179;-86
2022/02/12 04:03:04;;;;;;;2.87;1.83;;;2.00;99.90;;;;;;4995599;28;20416;-85
2022/02/12 04:05:30;;;;;;;0.83;0.73;;;2.00;99.90;;;;;;4996139;28;20246;-86
2022/02/12 04:07:57;;;;;;;0.67;0.67;;;2.00;99.90;;;;;;4986053;28;20284;-86
2022/02/12 04:10:22;;;;;;;0.73;0.73;;;2.00;99.90;;;;;;4993878;28;20223;-86
2022/02/12 04:12:48;;;;;;;3.03;1.17;;;2.10;99.90;;;;;;4994500;28;20277;-86
2022/02/12 04:15:15;;;;;;;0.80;0.80;;;2.10;99.90;;;;;;4971394;28;20257;-85
2022/02/12 04:17:43;;;;;;;1.00;1.00;;;2.10;99.90;;;;;;4995056;28;20215;-85
2022/02/12 04:20:14;;;;;;;0.40;0.40;;;2.00;99.90;;;;;;4998703;28;20242;-85
2022/02/12 04:22:44;;;;;;;1.83;1.73;;;2.10;99.90;;;;;;4979645;28;20231;-86
2022/02/12 04:25:23;;;;;;;0.50;0.50;;;2.00;99.90;;;;;;5033896;27;1311060;-87
2022/02/12 04:27:50;;;;;;;0.73;0.73;;;2.10;99.90;;;;;;5032402;28;20582;-86
2022/02/12 04:30:16;;;;;;;0.90;0.87;;;2.00;99.90;;;;;;5044082;28;20281;-86
2022/02/12 04:32:42;;;;;;;0.53;0.53;;;2.00;99.90;;;;;;5025366;28;20244;-86
2022/02/12 04:35:10;;;;;;;1.53;1.43;;;2.10;99.90;;;;;;5025754;28;20400;-86
2022/02/12 04:37:36;;;;;;;14.03;1.17;;;2.00;99.90;;;;;;5053607;28;20229;-86
2022/02/12 04:40:03;;;;;;;1.07;0.97;;;1.90;99.90;;;;;;5062318;28;20602;-86
2022/02/12 04:42:29;;;;;;;0.93;0.93;;;1.80;99.90;;;;;;5035717;28;20224;-86
2022/02/12 04:44:55;;;;;;;0.87;0.87;;;1.70;99.90;;;;;;5037136;28;20217;-86
2022/02/12 04:47:21;;;;;;;4.00;1.60;;;1.60;99.90;;;;;;5061927;28;20275;-86
2022/02/12 04:49:49;;;;;;;2.57;1.67;;;1.70;99.90;;;;;;5061616;28;20228;-86
2022/02/12 04:52:16;;;;;;;1.30;1.20;;;1.70;99.90;;;;;;5061574;28;20309;-84
2022/02/12 04:54:42;;;;;;;1.17;1.17;;;1.80;99.90;;;;;;5068998;28;20235;-85
2022/02/12 04:57:08;;;;;;;0.83;0.83;;;1.90;99.90;;;;;;5020376;28;20190;-86
2022/02/12 04:59:35;;;;;;;3.50;1.97;;;1.90;99.90;;;;;;5053205;28;20245;-86
2022/02/12 05:02:01;;;;;;;0.97;0.93;;;1.90;99.90;;;;;;5053666;28;20663;-85
2022/02/12 05:04:26;;;;;;;1.70;1.60;;;2.00;99.90;;;;;;5053332;28;20233;-85
2022/02/12 05:06:52;;;;;;;3.10;2.40;;;2.00;99.90;;;;;;5062248;28;20228;-86
2022/02/12 05:09:19;;;;;;;3.43;1.23;;;2.00;99.90;;;;;;5062720;28;20197;-86
2022/02/12 05:11:46;;;;;;;0.90;0.90;;;2.00;99.90;;;;;;5062491;28;20240;-85
2022/02/12 05:14:13;;;;;;;0.77;0.77;;;2.00;99.90;;;;;;5036384;28;20229;-85
2022/02/12 05:16:39;;;;;;;1.80;1.47;;;2.00;99.90;;;;;;5062065;28;20266;-85
2022/02/12 05:19:05;;;;;;;1.23;1.23;;;2.00;99.90;;;;;;5051895;28;20225;-85
2022/02/12 05:21:31;;;;;;;0.70;0.70;;;2.00;99.90;;;;;;5053962;28;20193;-85
2022/02/12 05:23:57;;;;;;;0.70;0.70;;;2.00;99.90;;;;;;5051155;28;20253;-87
2022/02/12 05:26:22;;;;;;;0.67;0.67;;;2.00;99.90;;;;;;5020573;28;20243;-87
2022/02/12 05:28:48;;;;;;;5.50;1.40;;;2.00;99.90;;;;;;5038040;28;20248;-84
2022/02/12 05:31:14;;;;;;;1.50;1.40;;;1.90;99.90;;;;;;5031279;28;20234;-85
2022/02/12 05:33:40;;;;;;;0.47;0.47;;;2.00;99.90;;;;;;5029614;28;20309;-84
2022/02/12 05:36:08;;;;;;;1.60;0.90;;;1.90;99.90;;;;;;5023809;28;20607;-84
2022/02/12 05:38:41;;;;;;;4.83;1.70;;;1.90;99.90;;;;;;5017264;28;20219;-86
2022/02/12 05:41:08;;;;;;;1.50;0.80;;;1.90;99.90;;;;;;5016080;28;20308;-86
2022/02/12 05:43:34;;;;;;;2.63;1.43;;;1.90;99.90;;;;;;5027832;28;20226;-86
2022/02/12 05:46:01;;;;;;;0.67;0.67;;;1.90;99.90;;;;;;5027681;28;20227;-85
2022/02/12 05:48:26;;;;;;;1.57;1.33;;;1.90;99.90;;;;;;5028394;28;20230;-87
2022/02/12 05:50:54;;;;;;;1.73;1.50;;;1.90;99.90;;;;;;5028732;28;20218;-87
2022/02/12 05:53:20;;;;;;;2.27;1.20;;;1.80;99.90;;;;;;5011135;28;20261;-87
2022/02/12 05:55:46;;;;;;;0.93;0.93;;;1.90;99.90;;;;;;5026998;28;20229;-85
2022/02/12 05:58:12;;;;;;;1.03;0.90;;;1.90;99.90;;;;;;5010304;28;20230;-85
2022/02/12 06:00:38;;;;;;;0.77;0.70;;;1.90;99.90;;;;;;5027337;28;20261;-86
2022/02/12 06:03:03;;;;;;;1.30;1.23;;;1.80;99.90;;;;;;5027483;28;20197;-86
2022/02/12 06:05:29;;;;;;;1.23;1.13;;;1.80;99.90;;;;;;5028218;28;20221;-86
2022/02/12 06:07:55;;;;;;;4.73;1.40;;;1.80;99.90;;;;;;5026621;28;20219;-86
2022/02/12 06:10:21;;;;;;;1.47;1.37;;;1.80;99.90;;;;;;5027641;28;20654;-85
2022/02/12 06:12:48;;;;;;;1.00;1.00;;;1.70;99.90;;;;;;5009139;28;20238;-87
2022/02/12 06:15:13;;;;;;;1.20;1.13;;;1.70;99.90;;;;;;5024063;28;20667;-85
2022/02/12 06:17:40;;;;;;;1.90;1.47;;;1.70;99.90;;;;;;5023370;28;20218;-85
2022/02/12 06:20:06;;;;;;;1.13;1.13;;;1.70;99.90;;;;;;5023193;28;20245;-85
2022/02/12 06:22:32;;;;;;;0.80;0.77;;;1.80;99.90;;;;;;5025665;28;20288;-85
2022/02/12 06:24:58;;;;;;;1.57;1.47;;;1.70;99.90;;;;;;5024662;28;20238;-86
2022/02/12 06:27:24;;;;;;;1.73;1.63;;;1.70;99.90;;;;;;5026371;28;20281;-87
2022/02/12 06:29:50;;;;;;;2.70;1.33;;;1.80;99.90;;;;;;5028393;28;20537;-86
2022/02/12 06:32:15;;;;;;;0.70;0.70;;;1.70;99.90;;;;;;5026116;28;20268;-85
2022/02/12 06:34:41;;;;;;;0.93;0.93;;;1.70;99.90;;;;;;5025899;28;20226;-86
2022/02/12 06:37:07;;;;;;;2.03;1.30;;;1.70;99.90;;;;;;5027732;28;20215;-86
2022/02/12 06:39:33;;;;;;;1.30;1.27;;;1.80;99.90;;;;;;5026090;28;20195;-85
2022/02/12 06:41:59;;;;;;;0.60;0.60;;;1.80;99.90;;;;;;5026834;28;20191;-85
2022/02/12 06:44:25;;;;;;;2.77;0.90;;;1.80;99.90;;;;;;5026812;28;20245;-86
2022/02/12 06:46:50;;;;;;;1.10;1.10;;;1.80;99.90;;;;;;5008596;28;20222;-86
2022/02/12 06:49:17;;;;;;;1.00;1.00;;;1.80;99.90;;;;;;5009385;28;20222;-86
2022/02/12 06:51:43;;;;;;;1.47;1.37;;;1.80;99.90;;;;;;5035941;28;20218;-86
2022/02/12 06:54:08;;;;;;;1.03;1.03;;;1.80;99.90;;;;;;5009717;28;20717;-86
2022/02/12 06:56:34;;;;;;;0.70;0.70;;;1.80;99.90;;;;;;5024931;28;20301;-86
2022/02/12 06:59:00;;;;;;;13.47;2.03;;;1.80;99.90;;;;;;5026108;28;20238;-87
2022/02/12 07:01:26;;;;;;;0.50;0.50;;;1.80;99.90;;;;;;5027869;28;20297;-87
2022/02/12 07:03:52;;;;;;;0.90;0.90;;;1.80;99.90;;;;;;5009540;28;20725;-86
2022/02/12 07:06:18;;;;;;;0.77;0.73;;;1.90;99.90;;;;;;5027399;28;20300;-87
2022/02/12 07:08:44;;;;;;;3.37;1.57;;;1.90;99.90;;;;;;5035552;28;20230;-87
2022/02/12 07:11:10;;;;;;;1.23;1.13;;;1.90;99.90;;;;;;5007097;28;20312;-87
2022/02/12 07:13:36;;;;;;;0.80;0.80;;;2.00;99.90;;;;;;5006598;28;20226;-87
2022/02/12 07:16:02;;;;;;;1.27;1.23;;;2.00;99.90;;;;;;5026164;28;20226;-85
2022/02/12 07:18:28;;;;;;;2.10;2.00;;;2.00;99.90;;;;;;5008966;28;20227;-87
2022/02/12 07:20:54;;;;;;;1.10;1.10;;;2.00;99.90;;;;;;5009662;28;20282;-82
2022/02/12 07:23:20;;;;;;;1.63;1.53;;;2.00;99.90;;;;;;5012946;28;20286;-83
2022/02/12 07:25:46;;;;;;;0.70;0.70;;;2.10;99.90;;;;;;5015168;28;20226;-83
2022/02/12 07:28:11;;;;;;;2.73;2.13;;;2.30;99.90;;;;;;5016908;28;20907;-83
2022/02/12 07:30:37;;;;;;;1.90;1.80;;;2.60;99.90;;;;;;5028612;28;20195;-83
2022/02/12 07:33:03;;;;;;;2.67;2.43;;;3.00;99.90;;;;;;5036572;28;20198;-83
2022/02/12 07:35:29;;;;;;;1.37;1.27;;;3.30;99.90;;;;;;5033715;28;20225;-84
2022/02/12 07:37:54;;;;;;;1.00;1.00;;;3.60;99.90;;;;;;5034047;28;20699;-82
2022/02/12 07:40:20;;;;;;;0.87;0.87;;;4.00;99.90;;;;;;5035236;28;20224;-84
2022/02/12 07:42:47;;;;;;;5.47;1.93;;;4.20;99.90;;;;;;5033385;28;20675;-82
2022/02/12 07:45:14;;;;;;;2.33;2.13;;;4.50;99.90;;;;;;5034930;28;20221;-83
2022/02/12 07:47:41;;;;;;;1.50;1.40;;;4.70;99.90;;;;;;5035796;28;20213;-86
2022/02/12 07:50:08;;;;;;;1.73;1.63;;;5.00;99.90;;;;;;5037354;28;20218;-87
2022/02/12 07:52:35;;;;;;;5.90;1.37;;;5.20;99.90;;;;;;5045508;28;20236;-87
2022/02/12 07:55:01;;;;;;;7.17;1.17;;;5.50;99.90;;;;;;5045957;28;20275;-87
2022/02/12 07:57:27;;;;;;;1.40;1.37;;;5.50;99.90;;;;;;5045632;28;20648;-88
2022/02/12 07:59:53;;;;;;;0.73;0.73;;;5.30;99.90;;;;;;5018793;28;20656;-86
2022/02/12 08:02:19;;;;;;;2.27;2.07;;;5.30;99.90;;;;;;5033931;28;20222;-84
2022/02/12 08:04:45;;;;;;;3.03;1.83;;;5.30;99.90;;;;;;5016583;28;20980;-84
2022/02/12 08:07:29;;;;;;;3.10;1.80;;;5.10;99.90;;;;;;5045196;28;20217;-82
2022/02/12 08:09:56;;;;;;;1.03;0.80;;;5.00;99.90;;;;;;5036326;28;20662;-85
2022/02/12 08:12:23;;;;;;;4.50;2.10;;;5.10;99.90;;;;;;5033690;28;20194;-85
2022/02/12 08:14:51;;;;;;;2.13;1.93;;;5.10;99.90;;;;;;5045678;28;20526;-85
2022/02/12 08:17:18;;;;;;;1.70;1.50;;;5.20;99.90;;;;;;5044508;28;20337;-82
2022/02/12 08:19:45;;;;;;;1.03;1.00;;;5.50;99.90;;;;;;5034601;28;20213;-83
2022/02/12 08:22:11;;;;;;;2.43;1.33;;;5.90;99.90;;;;;;5035074;28;20217;-83
2022/02/12 08:24:38;;;;;;;11.73;1.53;;;6.40;99.90;;;;;;5035498;28;20244;-83
2022/02/12 08:27:04;;;;;;;1.17;1.07;;;7.00;99.90;;;;;;5044621;28;20194;-82
2022/02/12 08:29:30;;;;;;;2.20;2.03;;;7.50;99.90;;;;;;5045381;28;20250;-83
2022/02/12 08:31:59;;;;;;;5.60;1.10;;;7.90;99.90;;;;;;5034080;28;20618;-83
2022/02/12 08:34:26;;;;;;;2.40;1.87;;;8.40;99.90;;;;;;5034843;28;20213;-82
2022/02/12 08:36:53;;;;;;;5.40;2.50;;;9.00;99.90;;;;;;5051741;28;20287;-82
2022/02/12 08:39:20;;;;;;;1.00;1.00;;;9.10;99.90;;;;;;5037033;28;20186;-83
2022/02/12 08:41:47;;;;;;;2.33;1.47;;;9.40;99.90;;;;;;5001933;28;20267;-83
2022/02/12 08:44:13;;;;;;;5.20;1.50;;;8.80;99.90;;;;;;5033706;28;20234;-82
2022/02/12 08:46:39;;;;;;;17.43;2.07;;;7.90;99.90;;;;;;5018785;28;20225;-84
2022/02/12 08:49:06;;;;;;;2.53;1.80;;;6.90;99.90;;;;;;5016664;28;20218;-82
2022/02/12 08:51:37;;;;;;;1.87;1.77;;;6.50;99.90;;;;;;5032059;28;20190;-83
2022/02/12 08:54:07;;;;;;;1.47;1.33;;;6.00;99.90;;;;;;5045717;28;20277;-84
2022/02/12 08:56:35;;;;;;;3.90;1.27;;;5.70;99.90;;;;;;5044780;28;20214;-82
2022/02/12 08:59:01;;;;;;;2.67;2.47;;;5.40;99.90;;;;;;5045093;28;20257;-82
2022/02/12 09:01:27;;;;;;;2.77;1.67;;;5.20;99.90;;;;;;5033238;28;20226;-82
2022/02/12 09:03:53;;;;;;;3.27;2.13;;;5.10;99.90;;;;;;5031026;28;20221;-82
2022/02/12 09:06:19;;;;;;;1.53;1.53;;;5.10;99.90;;;;;;5018135;28;20247;-83
2022/02/12 09:08:48;;;;;;;21.37;1.60;;;5.10;99.90;;;;;;5029828;28;20238;-82
2022/02/12 09:11:14;;;;;;;1.50;1.40;;;5.10;99.90;;;;;;5042221;28;20218;-84
2022/02/12 09:13:39;;;;;;;1.20;1.20;;;5.00;99.90;;;;;;5006203;28;20679;-84
2022/02/12 09:16:05;;;;;;;2.47;2.37;;;5.00;99.90;;;;;;5035469;28;20228;-82
2022/02/12 09:18:31;;;;;;;3.10;2.90;;;5.10;99.90;;;;;;5021867;28;20198;-82
2022/02/12 09:20:57;;;;;;;0.60;0.60;;;5.10;99.90;;;;;;5037249;28;20609;-83
2022/02/12 09:23:23;;;;;;;1.50;1.40;;;5.10;99.90;;;;;;5038184;28;20214;-83
2022/02/12 09:25:49;;;;;;;15.83;2.07;;;5.10;99.90;;;;;;5005650;28;20229;-82
2022/02/12 09:28:15;;;;;;;6.17;2.43;;;5.20;99.90;;;;;;5014016;28;20739;-81
2022/02/12 09:30:40;;;;;;;3.27;1.77;;;5.20;99.90;;;;;;5017900;28;20249;-83
2022/02/12 09:33:06;;;;;;;2.40;2.20;;;5.20;99.90;;;;;;5001686;28;20222;-85
2022/02/12 09:35:32;;;;;;;6.30;2.47;;;5.30;99.90;;;;;;5015457;28;20218;-82
2022/02/12 09:37:58;;;;;;;2.03;1.93;;;5.40;99.90;;;;;;5017764;28;20237;-82
2022/02/12 09:40:25;;;;;;;2.53;2.33;;;5.40;99.90;;;;;;4986832;28;20222;-84
2022/02/12 09:42:51;;;;;;;5.97;2.00;;;5.50;99.90;;;;;;5019062;28;20219;-82
2022/02/12 09:45:17;;;;;;;1.60;1.50;;;5.50;99.90;;;;;;5002575;28;20275;-81
2022/02/12 09:47:49;;;;;;;4.73;2.00;;;5.60;99.90;;;;;;5000786;28;21109;-81
2022/02/12 09:50:17;;;;;;;1.60;1.50;;;5.70;99.90;;;;;;5015707;28;20234;-81
2022/02/12 09:52:55;;;;;;;2.47;2.20;;;5.80;99.90;;;;;;5026979;28;20221;-82
2022/02/12 09:55:22;;;;;;;4.87;2.23;;;5.80;99.90;;;;;;5027444;28;20225;-82
2022/02/12 09:57:48;;;;;;;6.20;1.33;;;5.90;99.90;;;;;;5002735;28;20242;-83
2022/02/12 10:00:19;;;;;;;6.83;4.70;;;6.00;99.90;;;;;;5027701;28;20186;-80
2022/02/12 10:02:46;;;;;;;5.27;2.70;;;6.00;99.90;;;;;;5026967;28;20231;-84
2022/02/12 10:05:31;;;;;;;2.53;1.80;;;6.20;99.90;;;;;;5000894;28;20230;-84
2022/02/12 10:08:00;;;;;;;1.23;1.20;;;6.30;99.90;;;;;;5028396;28;20255;-84
2022/02/12 10:10:28;;;;;;;3.67;3.33;;;6.40;99.90;;;;;;5054647;28;20240;-85
2022/02/12 10:13:14;;;;;;;1.53;1.43;;;6.50;99.90;;;;;;5035241;28;20219;-85
2022/02/12 10:15:42;;;;;;;3.67;3.33;;;6.60;99.90;;;;;;5062783;28;20198;-83
2022/02/12 10:18:09;;;;;;;2.73;1.53;;;6.70;99.90;;;;;;5063937;28;20196;-85
2022/02/12 10:20:37;;;;;;;6.17;3.23;;;6.90;99.90;;;;;;5054737;28;20713;-86
2022/02/12 10:23:14;;;;;;;2.83;2.63;;;6.90;99.90;;;;;;5056493;28;20221;-84
2022/02/12 10:25:42;;;;;;;4.07;1.47;;;7.00;99.90;;;;;;5057095;28;20258;-83
2022/02/12 10:28:11;;;;;;;6.27;3.00;;;6.90;99.90;;;;;;5066835;28;20217;-84
2022/02/12 10:30:38;;;;;;;3.63;1.83;;;6.90;99.90;;;;;;5066181;28;20185;-83
2022/02/12 10:33:06;;;;;;;3.30;2.90;;;7.00;99.90;;;;;;5067289;28;20262;-82
2022/02/12 10:35:34;;;;;;;4.13;2.60;;;6.90;99.90;;;;;;5055049;28;20332;-85
2022/02/12 10:38:12;;;;;;;4.53;1.63;;;7.00;99.90;;;;;;5057428;28;20213;-85
2022/02/12 10:40:39;;;;;;;3.23;2.03;;;6.70;99.90;;;;;;5056930;28;20220;-84
2022/02/12 10:43:06;;;;;;;2.50;2.40;;;6.80;99.90;;;;;;5057438;28;20220;-85
2022/02/12 10:45:32;;;;;;;1.00;1.00;;;6.90;99.90;;;;;;5072089;28;20213;-85
2022/02/12 10:47:59;;;;;;;1.50;1.40;;;6.90;99.90;;;;;;5066933;28;20227;-84
2022/02/12 10:50:27;;;;;;;3.23;1.70;;;6.80;99.90;;;;;;5066280;28;20271;-85
2022/02/12 10:53:00;;;;;;;2.50;1.77;;;6.70;99.90;;;;;;5057475;28;21081;-85
2022/02/12 10:55:38;;;;;;;4.87;1.90;;;6.60;99.90;;;;;;5053449;28;20256;-86
2022/02/12 10:58:12;;;;;;;2.23;1.87;;;6.70;99.90;;;;;;5056812;28;20236;-85
2022/02/12 11:00:39;;;;;;;2.10;1.97;;;6.60;99.90;;;;;;5053483;28;20204;-85
2022/02/12 11:03:10;;;;;;;2.30;1.83;;;6.70;99.90;;;;;;5036859;28;20190;-85
2022/02/12 11:05:38;;;;;;;2.23;2.03;;;6.90;99.90;;;;;;5036155;28;20706;-86
2022/02/12 11:08:06;;;;;;;5.33;2.83;;;7.00;99.90;;;;;;5053533;28;20217;-83
2022/02/12 11:10:33;;;;;;;1.87;1.77;;;7.10;99.90;;;;;;5064784;28;20232;-85
2022/02/12 11:12:59;;;;;;;6.20;1.77;;;7.10;99.90;;;;;;5042482;28;20645;-86
2022/02/12 11:15:31;;;;;;;1.77;1.67;;;7.20;99.90;;;;;;5070590;28;20204;-83
2022/02/12 11:17:59;;;;;;;3.13;2.27;;;7.50;99.90;;;;;;5056620;28;20185;-85
2022/02/12 11:20:27;;;;;;;3.03;1.57;;;7.30;99.90;;;;;;5056218;28;20221;-84
2022/02/12 11:23:18;;;;;;;1.97;1.77;;;7.50;99.90;;;;;;5057870;28;20213;-84
2022/02/12 11:25:44;;;;;;;3.53;1.53;;;7.80;99.90;;;;;;5044370;28;20233;-83
2022/02/12 11:28:12;;;;;;;6.07;2.33;;;7.50;99.90;;;;;;5028343;28;20232;-83
2022/02/12 11:30:39;;;;;;;3.10;2.90;;;7.40;99.90;;;;;;5045937;28;20216;-85
2022/02/12 11:33:18;;;;;;;5.87;1.87;;;7.30;99.90;;;;;;5045274;28;20186;-85
2022/02/12 11:36:04;;;;;;;2.33;1.57;;;7.40;99.90;;;;;;5044946;28;20337;-86
2022/02/12 11:38:39;;;;;;;1.37;1.10;;;7.10;99.90;;;;;;5045001;28;20313;-85
2022/02/12 11:41:25;;;;;;;1.60;1.43;;;7.20;99.90;;;;;;5028300;28;20217;-86
2022/02/12 11:43:53;;;;;;;3.23;2.53;;;7.20;99.90;;;;;;5044243;28;21126;-87
2022/02/12 11:46:40;;;;;;;2.07;1.87;;;7.40;99.90;;;;;;5045519;28;20231;-86
2022/02/12 11:49:29;;;;;;;2.40;2.20;;;7.70;99.90;;;;;;5045384;28;20753;-85
2022/02/12 11:51:57;;;;;;;0.57;0.57;;;7.40;99.90;;;;;;5046195;28;20241;-85
2022/02/12 11:55:00;;;;;;;2.20;2.03;;;7.40;99.90;;;;;;5043880;28;20190;-84
2022/02/12 11:57:26;;;;;;;7.47;1.80;;;7.30;99.90;;;;;;5018396;28;20205;-86
2022/02/12 12:00:00;;;;;;;2.90;2.27;;;7.10;99.90;;;;;;5043771;28;20203;-85
2022/02/12 12:02:43;;;;;;;3.93;2.30;;;7.40;99.90;;;;;;5043756;28;20339;-84
2022/02/12 12:05:15;;;;;;;2.10;0.70;;;7.60;99.90;;;;;;5043484;28;20706;-82
2022/02/12 12:08:11;;;;;;;4.30;2.53;;;7.70;99.90;;;;;;5041406;28;20225;-82
2022/02/12 12:10:57;;;;;;;2.10;1.77;;;8.00;99.90;;;;;;5043608;28;20222;-84
2022/02/12 12:13:25;;;;;;;5.70;2.87;;;8.30;99.90;;;;;;5042288;28;20221;-84
2022/02/12 12:16:14;;;;;;;6.60;4.00;;;8.20;99.90;;;;;;5042286;28;20221;-83
2022/02/12 12:18:44;;;;;;;2.80;2.20;;;8.50;99.90;;;;;;5042833;28;20220;-84
2022/02/12 12:21:14;;;;;;;3.00;2.00;;;8.40;99.90;;;;;;5043864;28;20273;-84
2022/02/12 12:23:54;;;;;;;2.23;1.73;;;8.10;99.90;;;;;;5045960;28;20225;-84
2022/02/12 12:26:20;;;;;;;8.27;1.30;;;7.80;99.90;;;;;;5070735;28;21056;-85
2022/02/12 12:30:44;;;;;;;2.07;1.87;;;8.00;99.90;;;;;;5036566;28;20298;-83
2022/02/12 12:31:32;;;;;;;4.07;1.93;;;8.20;99.90;;;;;;5055238;28;20216;-86
2022/02/12 12:34:06;;;;;;;8.47;2.33;;;7.90;99.90;;;;;;5054007;28;20227;-87
2022/02/12 12:36:41;;;;;;;1.60;1.53;;;7.70;99.90;;;;;;5054737;28;20189;-86
2022/02/12 12:39:13;;;;;;;3.80;2.70;;;7.50;99.90;;;;;;5055727;28;20191;-85
2022/02/12 12:41:42;;;;;;;1.33;1.23;;;7.40;99.90;;;;;;5053716;28;20205;-85
2022/02/12 12:44:10;;;;;;;1.77;1.13;;;7.30;99.90;;;;;;5053790;28;20221;-86
2022/02/12 12:46:38;;;;;;;2.70;2.27;;;7.30;99.90;;;;;;5058468;28;20216;-86
2022/02/12 12:49:05;;;;;;;5.80;5.30;;;7.10;99.90;;;;;;5054404;28;20213;-85
2022/02/12 12:51:31;;;;;;;5.27;2.83;;;7.30;99.90;;;;;;5050144;28;20240;-85
2022/02/12 12:54:00;;;;;;;3.10;2.60;;;7.50;99.90;;;;;;5067723;28;20612;-85
2022/02/12 12:56:27;;;;;;;2.53;1.27;;;7.40;99.90;;;;;;5041837;28;20323;-84
2022/02/12 12:59:07;;;;;;;4.07;1.30;;;7.30;99.90;;;;;;5056588;28;20422;-86
2022/02/12 13:01:34;;;;;;;2.33;2.13;;;7.50;99.90;;;;;;5057512;28;20213;-85
2022/02/12 13:04:02;;;;;;;3.63;1.50;;;7.60;99.90;;;;;;5055979;28;20255;-84
2022/02/12 13:06:27;;;;;;;6.93;2.13;;;7.80;99.90;;;;;;5056990;28;20197;-84